Time;durP1;ratioP1;P1;durP2;ratioP2;P2;SDS_P1;SDS_P2;PMS_P1;PMS_P2;Temp;Humidity;BMP_temperature;BMP_pressure;BME280_temperature;BME280_humidity;BME280_pressure;Samples;Min_cycle;Max_cycle;Signal;HPM_P1;HPM_P2
2021/11/19 00:00:41;;;;;;;24.70;19.80;;;7.10;94.50;;;;;;5040167;28;20802;-73
2021/11/19 00:03:14;;;;;;;25.70;20.57;;;7.10;94.50;;;;;;5043433;28;20497;-73
2021/11/19 00:05:42;;;;;;;26.03;21.57;;;7.10;94.50;;;;;;5039762;28;20481;-74
2021/11/19 00:08:10;;;;;;;24.65;20.70;;;7.10;94.50;;;;;;5040827;28;20421;-74
2021/11/19 00:10:38;;;;;;;22.27;19.83;;;7.20;94.50;;;;;;5042541;28;20403;-69
2021/11/19 00:13:06;;;;;;;25.48;20.20;;;7.20;94.40;;;;;;5036965;28;20875;-73
2021/11/19 00:15:34;;;;;;;23.33;19.65;;;7.20;94.40;;;;;;5038866;28;20803;-74
2021/11/19 00:18:02;;;;;;;22.75;19.67;;;7.20;94.40;;;;;;5045305;28;20416;-74
2021/11/19 00:20:32;;;;;;;24.20;18.17;;;7.20;94.30;;;;;;5044399;28;20049;-70
2021/11/19 00:23:01;;;;;;;23.15;17.52;;;7.20;94.30;;;;;;5035140;28;20037;-70
2021/11/19 00:25:32;;;;;;;25.67;16.48;;;7.10;94.30;;;;;;5035543;28;20057;-69
2021/11/19 00:28:00;;;;;;;22.13;17.10;;;7.20;94.40;;;;;;5034688;28;20049;-73
2021/11/19 00:30:29;;;;;;;23.17;16.80;;;7.20;94.40;;;;;;5046932;28;20052;-73
2021/11/19 00:32:58;;;;;;;27.48;18.60;;;7.10;94.40;;;;;;5030688;28;20046;-74
2021/11/19 00:35:26;;;;;;;24.40;17.95;;;7.10;94.40;;;;;;5029758;28;20053;-70
2021/11/19 00:37:57;;;;;;;29.13;18.48;;;7.10;94.50;;;;;;5025058;28;20121;-73
2021/11/19 00:40:55;;;;;;;24.02;17.90;;;7.10;94.50;;;;;;5017444;28;20046;-69
2021/11/19 00:43:31;;;;;;;25.77;19.10;;;7.10;94.50;;;;;;5043784;28;20048;-73
2021/11/19 00:45:59;;;;;;;;;;;7.10;94.50;;;;;;5035116;28;20096;-73
2021/11/19 00:48:28;;;;;;;;;;;7.10;94.40;;;;;;5033985;28;19943;-69
2021/11/19 00:50:55;;;;;;;;;;;7.10;94.40;;;;;;5023138;28;19921;-70
2021/11/19 00:53:22;;;;;;;;;;;7.10;94.40;;;;;;5033988;28;20419;-70
2021/11/19 00:55:49;;;;;;;;;;;7.10;94.50;;;;;;5039488;28;19971;-69
2021/11/19 00:58:20;;;;;;;;;;;7.10;94.50;;;;;;5044175;28;19921;-70
2021/11/19 01:00:55;;;;;;;;;;;7.10;94.60;;;;;;5044355;28;19920;-73
2021/11/19 01:03:23;;;;;;;;;;;7.20;94.60;;;;;;5029358;28;20370;-69
2021/11/19 01:05:50;;;;;;;;;;;7.20;94.60;;;;;;5026328;28;19921;-70
2021/11/19 01:08:18;;;;;;;;;;;7.20;94.60;;;;;;5032484;28;19976;-73
2021/11/19 01:10:46;;;;;;;;;;;7.20;94.60;;;;;;5043896;28;20015;-73
2021/11/19 01:13:13;;;;;;;;;;;7.20;94.50;;;;;;5040796;28;19922;-74
2021/11/19 01:15:42;;;;;;;;;;;7.10;94.60;;;;;;5033074;28;19921;-70
2021/11/19 01:18:16;;;;;;;;;;;7.20;94.50;;;;;;5031173;28;20388;-73
2021/11/19 01:20:47;;;;;;;;;;;7.10;94.40;;;;;;5015815;28;19921;-73
2021/11/19 01:23:16;;;;;;;;;;;7.20;94.40;;;;;;5043614;28;20281;-69
2021/11/19 01:25:46;;;;;;;;;;;7.10;94.50;;;;;;5023574;28;20416;-74
2021/11/19 01:28:13;;;;;;;;;;;7.10;94.90;;;;;;5036807;28;19967;-74
2021/11/19 01:30:43;;;;;;;;;;;7.10;94.60;;;;;;5029532;28;19922;-69
2021/11/19 01:33:10;;;;;;;;;;;7.10;94.60;;;;;;5040835;28;19943;-69
2021/11/19 01:35:39;;;;;;;;;;;7.10;94.70;;;;;;5034970;28;19946;-69
2021/11/19 01:38:07;;;;;;;;;;;7.10;94.70;;;;;;5034165;28;19925;-70
2021/11/19 01:40:41;;;;;;;;;;;7.10;94.70;;;;;;5041134;28;19925;-70
2021/11/19 01:43:12;;;;;;;;;;;7.10;94.70;;;;;;5048360;28;20372;-74
2021/11/19 01:45:41;;;;;;;;;;;7.10;94.70;;;;;;5037221;28;20302;-69
2021/11/19 01:48:12;;;;;;;;;;;7.10;94.70;;;;;;5028219;28;19921;-72
2021/11/19 01:50:51;;;;;;;;;;;7.00;94.70;;;;;;5033520;28;19921;-73
2021/11/19 01:53:26;;;;;;;;;;;7.00;94.70;;;;;;5020331;28;20291;-70
2021/11/19 01:56:21;;;;;;;;;;;7.00;94.90;;;;;;5035008;28;19936;-70
2021/11/19 01:58:57;;;;;;;;;;;7.00;94.90;;;;;;5031071;28;20263;-73
2021/11/19 02:01:34;;;;;;;;;;;6.90;94.90;;;;;;5035153;28;19925;-69
2021/11/19 02:04:03;;;;;;;;;;;6.80;95.00;;;;;;5032373;28;19967;-68
2021/11/19 02:06:32;;;;;;;;;;;6.80;95.20;;;;;;5036961;28;19921;-68
2021/11/19 02:08:59;;;;;;;;;;;6.80;95.20;;;;;;5038835;28;19920;-68
2021/11/19 02:11:44;;;;;;;;;;;6.90;95.70;;;;;;5044832;28;20277;-69
2021/11/19 02:14:19;;;;;;;;;;;6.90;95.30;;;;;;5045634;28;20376;-68
2021/11/19 02:16:48;;;;;;;;;;;6.80;95.20;;;;;;5029753;28;19921;-72
2021/11/19 02:19:22;;;;;;;;;;;6.80;95.20;;;;;;5031860;28;19921;-69
2021/11/19 02:21:56;;;;;;;;;;;6.80;95.30;;;;;;5032101;28;20402;-74
2021/11/19 02:24:31;;;;;;;;;;;6.80;95.40;;;;;;5040834;28;20421;-69
2021/11/19 02:27:05;;;;;;;;;;;6.80;95.30;;;;;;5027252;28;19920;-69
2021/11/19 02:29:40;;;;;;;;;;;6.90;95.40;;;;;;5046353;28;19927;-73
2021/11/19 02:32:10;;;;;;;;;;;6.80;95.30;;;;;;5028945;28;20289;-69
2021/11/19 02:34:37;;;;;;;;;;;6.80;95.30;;;;;;5032935;28;19920;-73
2021/11/19 02:37:08;;;;;;;;;;;6.80;95.30;;;;;;5041906;28;19928;-69
2021/11/19 02:39:46;;;;;;;;;;;6.80;95.40;;;;;;5037222;28;19921;-73
2021/11/19 02:42:18;;;;;;;;;;;6.90;95.40;;;;;;5042513;28;19972;-70
2021/11/19 02:44:45;;;;;;;;;;;6.90;95.40;;;;;;5032252;28;19920;-74
2021/11/19 02:47:13;;;;;;;;;;;6.90;95.40;;;;;;5035827;28;20389;-69
2021/11/19 02:49:41;;;;;;;;;;;6.90;95.30;;;;;;5030001;28;19928;-73
2021/11/19 02:52:09;;;;;;;;;;;6.90;95.30;;;;;;5029648;28;19967;-70
2021/11/19 02:54:37;;;;;;;;;;;6.90;95.20;;;;;;5048120;28;19928;-69
2021/11/19 02:57:04;;;;;;;;;;;6.90;95.20;;;;;;5041966;28;20339;-69
2021/11/19 02:59:31;;;;;;;;;;;6.80;95.10;;;;;;5030662;28;19921;-69
2021/11/19 03:02:00;;;;;;;;;;;6.80;95.10;;;;;;5039747;28;19925;-70
2021/11/19 03:04:30;;;;;;;;;;;6.80;95.10;;;;;;5042823;28;19925;-70
2021/11/19 03:06:58;;;;;;;;;;;6.80;95.20;;;;;;5047248;28;19920;-73
2021/11/19 03:09:40;;;;;;;;;;;6.80;95.20;;;;;;5039585;28;19925;-69
2021/11/19 03:12:09;;;;;;;;;;;6.80;95.20;;;;;;5037696;28;19921;-73
2021/11/19 03:14:36;;;;;;;;;;;6.80;95.20;;;;;;5038805;28;19928;-69
2021/11/19 03:17:04;;;;;;;;;;;6.90;95.20;;;;;;5041588;28;19975;-69
2021/11/19 03:19:31;;;;;;;;;;;6.90;95.20;;;;;;5049095;28;20392;-73
2021/11/19 03:21:58;;;;;;;;;;;6.90;95.10;;;;;;5034673;28;19921;-73
2021/11/19 03:24:25;;;;;;;;;;;6.90;95.00;;;;;;5039474;28;20043;-73
2021/11/19 03:26:53;;;;;;;;;;;6.90;95.00;;;;;;5052374;28;20365;-72
2021/11/19 03:29:21;;;;;;;;;;;6.80;94.80;;;;;;5051273;28;19927;-74
2021/11/19 03:31:49;;;;;;;;;;;6.70;94.80;;;;;;5041890;28;19932;-72
2021/11/19 03:34:16;;;;;;;;;;;6.70;94.90;;;;;;5044021;28;20328;-74
2021/11/19 03:36:45;;;;;;;;;;;6.70;95.00;;;;;;5036734;28;19935;-69
2021/11/19 03:39:12;;;;;;;;;;;6.70;95.00;;;;;;5043053;28;19927;-73
2021/11/19 03:41:40;;;;;;;;;;;6.70;95.40;;;;;;5043828;28;19970;-70
2021/11/19 03:44:13;;;;;;;;;;;6.70;95.00;;;;;;5042681;28;19921;-73
2021/11/19 03:46:45;;;;;;;;;;;6.70;95.00;;;;;;5046881;28;20370;-73
2021/11/19 03:49:12;;;;;;;;;;;6.70;95.00;;;;;;5033308;28;19924;-73
2021/11/19 03:51:44;;;;;;;;;;;6.70;94.90;;;;;;5027131;28;19971;-73
2021/11/19 03:54:12;;;;;;;;;;;6.60;94.80;;;;;;5034086;28;20427;-70
2021/11/19 03:56:40;;;;;;;;;;;6.60;94.80;;;;;;5036737;28;19975;-69
2021/11/19 03:59:08;;;;;;;;;;;6.60;94.90;;;;;;5044797;28;19970;-73
2021/11/19 04:01:38;;;;;;;;;;;6.60;94.90;;;;;;5035623;28;19921;-69
2021/11/19 04:04:06;;;;;;;;;;;6.60;94.90;;;;;;5033126;28;19967;-73
2021/11/19 04:06:33;;;;;;;;;;;6.60;94.80;;;;;;5036279;28;19928;-73
2021/11/19 04:09:00;;;;;;;;;;;6.60;94.80;;;;;;5050920;28;19921;-70
2021/11/19 04:11:27;;;;;;;;;;;6.50;94.80;;;;;;5040619;28;19921;-72
2021/11/19 04:13:54;;;;;;;;;;;6.50;94.80;;;;;;5039469;28;19921;-73
2021/11/19 04:16:23;;;;;;;;;;;6.60;94.80;;;;;;5040414;28;20278;-70
2021/11/19 04:18:50;;;;;;;;;;;6.60;94.90;;;;;;5038666;28;20288;-69
2021/11/19 04:21:18;;;;;;;;;;;6.60;94.90;;;;;;5051301;28;19990;-74
2021/11/19 04:23:47;;;;;;;;;;;6.60;94.80;;;;;;5041086;28;19975;-74
2021/11/19 04:26:14;;;;;;;;;;;6.50;94.70;;;;;;5033856;28;20270;-74
2021/11/19 04:28:43;;;;;;;;;;;6.50;94.80;;;;;;5032480;28;20348;-69
2021/11/19 04:31:10;;;;;;;;;;;6.50;94.80;;;;;;5035052;28;20434;-74
2021/11/19 04:33:37;;;;;;;;;;;6.50;94.80;;;;;;5038282;28;20000;-73
2021/11/19 04:36:04;;;;;;;;;;;6.50;94.90;;;;;;5030445;28;19922;-72
2021/11/19 04:38:31;;;;;;;;;;;6.40;94.90;;;;;;5033327;28;20316;-70
2021/11/19 04:40:58;;;;;;;;;;;6.30;95.00;;;;;;5033342;28;19921;-72
2021/11/19 04:43:26;;;;;;;;;;;6.20;95.20;;;;;;5036313;28;19925;-74
2021/11/19 04:45:53;;;;;;;;;;;6.20;95.30;;;;;;5040116;28;20327;-69
2021/11/19 04:48:21;;;;;;;;;;;6.20;95.40;;;;;;5035725;28;19925;-69
2021/11/19 04:50:49;;;;;;;;;;;6.10;95.40;;;;;;5022607;28;20353;-69
2021/11/19 04:53:17;;;;;;;;;;;6.10;95.50;;;;;;5035470;28;19921;-74
2021/11/19 04:55:44;;;;;;;;;;;6.10;95.60;;;;;;5043136;28;19921;-69
2021/11/19 04:58:11;;;;;;;;;;;6.10;95.60;;;;;;5041358;28;19928;-69
2021/11/19 05:00:42;;;;;;;;;;;6.10;95.60;;;;;;5034694;28;20328;-69
2021/11/19 05:03:09;;;;;;;;;;;6.10;95.60;;;;;;5034654;28;19921;-73
2021/11/19 05:05:36;;;;;;;;;;;6.10;95.60;;;;;;5033229;28;19921;-69
2021/11/19 05:08:04;;;;;;;;;;;6.10;95.50;;;;;;5040973;28;19975;-72
2021/11/19 05:10:32;;;;;;;;;;;6.00;95.50;;;;;;5044896;28;19925;-69
2021/11/19 05:13:00;;;;;;;;;;;6.00;95.50;;;;;;5032339;28;19967;-73
2021/11/19 05:15:28;;;;;;;;;;;6.00;95.60;;;;;;5035035;28;19963;-73
2021/11/19 05:17:55;;;;;;;;;;;6.00;95.60;;;;;;5039431;28;20388;-71
2021/11/19 05:20:23;;;;;;;;;;;6.00;95.60;;;;;;5036282;28;19972;-69
2021/11/19 05:22:50;;;;;;;;;;;6.00;95.60;;;;;;5041001;28;19924;-69
2021/11/19 05:25:18;;;;;;;;;;;6.00;95.60;;;;;;5034351;28;19921;-73
2021/11/19 05:27:46;;;;;;;;;;;6.10;95.60;;;;;;5035043;28;19991;-69
2021/11/19 05:30:13;;;;;;;;;;;6.10;95.60;;;;;;5040854;28;20331;-72
2021/11/19 05:32:41;;;;;;;;;;;6.20;95.60;;;;;;5044746;28;19924;-74
2021/11/19 05:35:08;;;;;;;;;;;6.20;95.50;;;;;;5033467;28;19921;-74
2021/11/19 05:37:36;;;;;;;;;;;6.20;95.50;;;;;;5026324;28;19920;-69
2021/11/19 05:40:04;;;;;;;;;;;6.20;95.50;;;;;;5026442;28;19921;-69
2021/11/19 05:42:31;;;;;;;;;;;6.20;95.50;;;;;;5025767;28;19921;-69
2021/11/19 05:44:58;;;;;;;;;;;6.20;95.50;;;;;;5040492;28;19921;-69
2021/11/19 05:47:25;;;;;;;;;;;6.20;95.40;;;;;;5032066;28;19921;-70
2021/11/19 05:49:51;;;;;;;;;;;6.10;95.40;;;;;;5034096;28;19971;-72
2021/11/19 05:52:18;;;;;;;;;;;6.20;95.40;;;;;;5035213;28;19921;-69
2021/11/19 05:54:45;;;;;;;;;;;6.20;95.50;;;;;;5047094;28;19920;-74
2021/11/19 05:57:12;;;;;;;;;;;6.20;95.50;;;;;;5043059;28;20360;-73
2021/11/19 05:59:39;;;;;;;;;;;6.20;95.50;;;;;;5030312;28;19964;-69
2021/11/19 06:02:07;;;;;;;;;;;6.30;95.40;;;;;;5019999;28;20332;-73
2021/11/19 06:04:37;;;;;;;;;;;6.20;95.40;;;;;;5035515;28;19921;-69
2021/11/19 06:07:04;;;;;;;;;;;6.20;95.40;;;;;;5043529;28;20392;-69
2021/11/19 06:09:31;;;;;;;;;;;6.20;95.30;;;;;;5044426;28;19921;-73
2021/11/19 06:12:01;;;;;;;;;;;6.20;95.40;;;;;;5040104;28;19921;-69
2021/11/19 06:14:34;;;;;;;;;;;6.20;95.50;;;;;;5039601;28;19928;-69
2021/11/19 06:17:04;;;;;;;;;;;6.20;95.40;;;;;;5035753;28;19929;-70
2021/11/19 06:19:35;;;;;;;;;;;6.20;95.50;;;;;;5036116;28;19951;-74
2021/11/19 06:22:08;;;;;;;;;;;6.20;95.40;;;;;;5037538;28;19921;-69
2021/11/19 06:24:39;;;;;;;;;;;6.20;95.40;;;;;;5036953;28;19975;-69
2021/11/19 06:27:06;;;;;;;;;;;6.20;95.40;;;;;;5033149;28;19925;-69
2021/11/19 06:29:33;;;;;;;;;;;6.20;95.30;;;;;;5034309;28;19971;-74
2021/11/19 06:32:00;;;;;;;;;;;6.20;95.30;;;;;;5036048;28;19929;-69
2021/11/19 06:34:28;;;;;;;;;;;6.30;95.20;;;;;;5041539;28;19921;-73
2021/11/19 06:36:56;;;;;;;;;;;6.30;95.20;;;;;;5049547;28;20296;-69
2021/11/19 06:39:31;;;;;;;;;;;6.30;95.10;;;;;;5039611;28;19928;-74
2021/11/19 06:41:58;;;;;;;;;;;6.30;94.90;;;;;;5035093;28;19928;-73
2021/11/19 06:44:26;;;;;;;;;;;6.30;94.90;;;;;;5040254;28;19925;-69
2021/11/19 06:46:53;;;;;;;;;;;6.30;94.90;;;;;;5039569;28;19928;-73
2021/11/19 06:49:19;;;;;;;;;;;6.30;94.70;;;;;;5036533;28;20157;-69
2021/11/19 06:51:46;;;;;;;;;;;6.30;94.60;;;;;;5036839;28;19921;-73
2021/11/19 06:54:13;;;;;;;;;;;6.30;94.50;;;;;;5041131;28;19923;-69
2021/11/19 06:56:40;;;;;;;;;;;6.40;94.50;;;;;;5038629;28;19925;-72
2021/11/19 06:59:07;;;;;;;;;;;6.30;94.30;;;;;;5032314;28;20361;-73
2021/11/19 07:01:34;;;;;;;;;;;6.40;94.30;;;;;;5035619;28;19971;-73
2021/11/19 07:04:01;;;;;;;;;;;6.30;94.30;;;;;;5038155;28;20431;-73
2021/11/19 07:06:30;;;;;;;;;;;6.30;94.30;;;;;;5035175;28;19951;-73
2021/11/19 07:08:57;;;;;;;;;;;6.30;94.40;;;;;;5035942;28;19921;-73
2021/11/19 07:11:25;;;;;;;;;;;6.40;94.40;;;;;;5035275;28;19986;-69
2021/11/19 07:13:53;;;;;;;;;;;6.40;94.40;;;;;;5032792;28;19948;-74
2021/11/19 07:16:24;;;;;;;;;;;6.40;94.30;;;;;;5047661;28;19925;-74
2021/11/19 07:18:51;;;;;;;;;;;6.40;94.30;;;;;;5040007;28;19967;-73
2021/11/19 07:21:19;;;;;;;;;;;6.50;94.30;;;;;;5036467;28;19921;-70
2021/11/19 07:23:45;;;;;;;;;;;6.50;94.20;;;;;;5036752;28;19924;-70
2021/11/19 07:26:13;;;;;;;;;;;6.50;94.10;;;;;;5036645;28;20365;-70
2021/11/19 07:28:40;;;;;;;;;;;6.50;94.10;;;;;;5036522;28;19964;-74
2021/11/19 07:31:20;;;;;;;;;;;6.50;94.00;;;;;;5038659;28;19991;-69
2021/11/19 07:33:47;;;;;;;;;;;6.50;94.00;;;;;;5038928;28;19921;-73
2021/11/19 07:36:16;;;;;;;;;;;6.50;94.10;;;;;;5035313;28;19921;-73
2021/11/19 07:38:44;;;;;;;;;;;6.60;94.20;;;;;;5027784;28;20276;-69
2021/11/19 07:41:19;;;;;;;;;;;6.60;94.50;;;;;;5025146;28;19966;-69
2021/11/19 07:43:47;;;;;;;;;;;6.60;94.20;;;;;;5036116;28;19928;-73
2021/11/19 07:46:17;;;;;;;;;;;6.70;94.20;;;;;;5035745;28;20385;-73
2021/11/19 07:48:44;;;;;;;;;;;6.70;94.10;;;;;;5031730;28;19921;-74
2021/11/19 07:51:18;;;;;;;;;;;6.70;94.20;;;;;;5035637;28;19920;-69
2021/11/19 07:53:46;;;;;;;;;;;6.80;94.20;;;;;;5035797;28;20361;-74
2021/11/19 07:56:14;;;;;;;;;;;6.90;94.20;;;;;;5045285;28;19925;-74
2021/11/19 07:58:42;;;;;;;;;;;6.90;94.00;;;;;;5028504;28;19950;-69
2021/11/19 08:01:09;;;;;;;;;;;6.90;93.90;;;;;;5039597;28;19928;-69
2021/11/19 08:03:39;;;;;;;;;;;7.00;93.90;;;;;;5036296;28;19968;-69
2021/11/19 08:06:06;;;;;;;;;;;7.00;93.80;;;;;;5036316;28;19921;-69
2021/11/19 08:08:34;;;;;;;;;;;7.00;93.80;;;;;;5045526;28;19921;-72
2021/11/19 08:11:02;;;;;;;;;;;7.00;93.80;;;;;;5039892;28;19929;-69
2021/11/19 08:13:29;;;;;;;;;;;7.10;93.80;;;;;;5031620;28;20317;-69
2021/11/19 08:15:57;;;;;;;;;;;7.10;93.80;;;;;;5037999;28;20368;-69
2021/11/19 08:18:25;;;;;;;;;;;7.20;93.80;;;;;;5035739;28;19976;-69
2021/11/19 08:20:54;;;;;;;;;;;7.20;93.70;;;;;;5035063;28;19983;-74
2021/11/19 08:23:34;;;;;;;;;;;7.20;93.60;;;;;;5034502;28;19933;-72
2021/11/19 08:26:03;;;;;;;;;;;7.20;93.50;;;;;;5034306;28;19998;-73
2021/11/19 08:28:30;;;;;;;;;;;7.20;93.80;;;;;;5038928;28;19951;-69
2021/11/19 08:30:58;;;;;;;;;;;7.30;93.50;;;;;;5033694;28;19987;-74
2021/11/19 08:33:25;;;;;;;;;;;7.20;93.20;;;;;;5032401;28;19920;-72
2021/11/19 08:35:51;;;;;;;;;;;7.20;93.10;;;;;;5035791;28;19999;-69
2021/11/19 08:38:20;;;;;;;;;;;7.30;93.50;;;;;;5035775;28;19971;-70
2021/11/19 08:40:47;;;;;;;;;;;7.30;93.30;;;;;;5034970;28;19920;-73
2021/11/19 08:43:24;;;;;;;;;;;7.20;92.80;;;;;;5033618;28;19925;-69
2021/11/19 08:45:53;;;;;;;;;;;7.10;93.10;;;;;;5033252;28;20274;-69
2021/11/19 08:48:21;;;;;;;;;;;7.00;93.10;;;;;;5024869;28;19921;-69
2021/11/19 08:50:48;;;;;;;;;;;7.10;93.20;;;;;;5036733;28;19982;-72
2021/11/19 08:53:16;;;;;;;;;;;7.20;93.10;;;;;;5051404;28;19921;-73
2021/11/19 08:55:44;;;;;;;;;;;7.20;93.20;;;;;;5045261;28;19927;-73
2021/11/19 08:58:13;;;;;;;;;;;7.30;93.10;;;;;;5043175;28;19928;-69
2021/11/19 09:00:41;;;;;;;;;;;7.30;92.80;;;;;;5034848;28;19928;-69
2021/11/19 09:03:10;;;;;;;;;;;7.30;92.90;;;;;;5035992;28;20365;-69
2021/11/19 09:05:42;;;;;;;;;;;7.40;93.00;;;;;;5034322;28;20328;-73
2021/11/19 09:08:10;;;;;;;;;;;7.50;92.80;;;;;;5041701;28;19921;-69
2021/11/19 09:10:38;;;;;;;;;;;7.50;92.70;;;;;;5040095;28;19927;-69
2021/11/19 09:13:06;;;;;;;;;;;7.60;92.50;;;;;;5032100;28;20424;-72
2021/11/19 09:15:34;;;;;;;;;;;7.70;92.40;;;;;;5034511;28;19921;-69
2021/11/19 09:18:10;;;;;;;;;;;7.70;92.30;;;;;;5034303;28;19921;-69
2021/11/19 09:20:47;;;;;;;;;;;7.70;92.10;;;;;;5035262;28;19971;-73
2021/11/19 09:23:16;;;;;;;;;;;7.80;92.20;;;;;;5032562;28;20020;-73
2021/11/19 09:25:46;;;;;;;;;;;7.80;92.20;;;;;;5034129;28;19929;-73
2021/11/19 09:28:13;;;;;;;;;;;7.90;92.10;;;;;;5033815;28;20447;-69
2021/11/19 09:30:42;;;;;;;;;;;7.90;92.10;;;;;;5033112;28;19966;-73
2021/11/19 09:33:11;;;;;;;;;;;8.00;92.10;;;;;;5030959;28;20293;-73
2021/11/19 09:35:38;;;;;;;;;;;8.00;92.00;;;;;;5033275;28;19940;-69
2021/11/19 09:38:05;;;;;;;;;;;8.00;92.10;;;;;;5034457;28;20285;-69
2021/11/19 09:40:35;;;;;;;;;;;8.00;92.00;;;;;;5035291;28;20391;-72
2021/11/19 09:43:15;;;;;;;;;;;8.10;92.00;;;;;;5031617;28;20316;-73
2021/11/19 09:45:44;;;;;;;;;;;8.10;92.00;;;;;;5046552;28;19924;-69
2021/11/19 09:48:27;;;;;;;;;;;8.20;92.00;;;;;;5033055;28;20000;-69
2021/11/19 09:50:56;;;;;;;;;;;8.20;92.10;;;;;;5030731;28;19921;-72
2021/11/19 09:53:26;;;;;;;;;;;8.20;91.80;;;;;;5034349;28;19924;-74
2021/11/19 09:56:11;;;;;;;;;;;8.30;92.10;;;;;;5031486;28;19990;-69
2021/11/19 09:58:44;;;;;;;;;;;8.30;92.20;;;;;;5048099;28;19971;-73
2021/11/19 10:01:30;;;;;;;;;;;8.40;91.90;;;;;;5033698;28;19921;-73
2021/11/19 10:04:03;;;;;;;;;;;8.40;91.60;;;;;;5032944;28;19927;-72
2021/11/19 10:06:48;;;;;;;;;;;8.30;91.70;;;;;;5031103;28;19921;-72
2021/11/19 10:09:21;;;;;;;;;;;8.30;92.00;;;;;;5038314;28;19925;-73
2021/11/19 10:12:14;;;;;;;;;;;8.40;92.00;;;;;;5034096;28;19979;-72
2021/11/19 10:14:52;;;;;;;;;;;8.50;92.00;;;;;;5027999;28;19920;-74
2021/11/19 10:17:28;;;;;;;;;;;8.40;91.60;;;;;;5031497;28;20365;-69
2021/11/19 10:19:57;;;;;;;;;;;8.40;91.90;;;;;;5033594;28;19921;-69
2021/11/19 10:22:38;;;;;;;;;;;8.50;92.20;;;;;;5034125;28;20052;-72
2021/11/19 10:25:05;;;;;;;;;;;8.60;92.40;;;;;;5032106;28;19921;-69
2021/11/19 10:27:34;;;;;;;;;;;8.70;92.00;;;;;;5033391;28;19924;-70
2021/11/19 10:30:12;;;;;;;;;;;8.80;92.10;;;;;;5031489;28;19921;-70
2021/11/19 10:32:39;;;;;;;;;;;8.90;91.90;;;;;;5032655;28;19943;-70
2021/11/19 10:35:12;;;;;;;;;;;9.00;91.50;;;;;;5035068;28;20372;-73
2021/11/19 10:37:57;;;;;;;;;;;9.00;91.30;;;;;;5032191;28;20385;-73
2021/11/19 10:40:46;;;;;;;12.65;7.82;;;9.10;91.40;;;;;;5039017;28;19929;-70
2021/11/19 10:43:25;;;;;;;12.73;9.00;;;9.10;91.30;;;;;;5039478;28;20410;-70
2021/11/19 10:46:10;;;;;;;13.25;9.07;;;9.20;91.60;;;;;;5036879;28;20453;-74
2021/11/19 10:49:19;;;;;;;10.40;6.55;;;9.30;91.60;;;;;;5036172;28;20409;-70
2021/11/19 10:52:23;;;;;;;9.00;6.38;;;9.40;91.20;;;;;;5026799;28;20460;-70
2021/11/19 10:55:09;;;;;;;7.07;5.55;;;9.40;91.20;;;;;;5037308;28;20462;-70
2021/11/19 10:57:57;;;;;;;7.22;5.28;;;9.40;90.60;;;;;;5037702;28;20405;-74
2021/11/19 11:00:46;;;;;;;7.88;5.35;;;9.40;90.40;;;;;;5038935;28;20402;-71
2021/11/19 11:03:23;;;;;;;7.43;5.30;;;9.30;90.30;;;;;;5034743;28;20399;-69
2021/11/19 11:06:10;;;;;;;7.70;5.80;;;9.40;90.40;;;;;;5031703;28;20414;-70
2021/11/19 11:08:47;;;;;;;8.00;6.20;;;9.40;90.10;;;;;;5037344;28;20398;-69
2021/11/19 11:11:22;;;;;;;8.80;6.60;;;9.30;90.10;;;;;;5030991;28;20391;-74
2021/11/19 11:13:56;;;;;;;8.13;6.05;;;9.20;90.10;;;;;;5032335;28;20402;-75
2021/11/19 11:16:27;;;;;;;8.30;6.63;;;9.10;90.30;;;;;;5031028;28;20396;-69
2021/11/19 11:19:13;;;;;;;7.78;5.93;;;9.20;90.40;;;;;;5035941;28;20457;-74
2021/11/19 11:22:12;;;;;;;8.38;5.80;;;9.30;90.40;;;;;;5031797;28;20398;-75
2021/11/19 11:24:56;;;;;;;6.10;5.22;;;9.30;90.30;;;;;;5021081;28;20405;-73
2021/11/19 11:27:54;;;;;;;6.25;5.18;;;9.40;89.80;;;;;;5030522;28;20406;-74
2021/11/19 11:30:43;;;;;;;5.97;4.88;;;9.50;89.70;;;;;;5034665;28;20428;-74
2021/11/19 11:33:28;;;;;;;7.63;5.63;;;9.40;89.30;;;;;;5035692;28;20403;-74
2021/11/19 11:36:19;;;;;;;6.93;5.65;;;9.40;89.80;;;;;;5032119;28;20424;-70
2021/11/19 11:39:10;;;;;;;8.10;6.32;;;9.30;88.90;;;;;;5038572;28;20431;-73
2021/11/19 11:41:54;;;;;;;8.57;6.35;;;9.20;89.90;;;;;;5029587;28;20394;-74
2021/11/19 11:44:43;;;;;;;7.38;5.82;;;9.20;89.60;;;;;;5037371;28;20789;-73
2021/11/19 11:47:28;;;;;;;7.18;5.60;;;9.30;89.20;;;;;;5031803;28;20417;-75
2021/11/19 11:50:02;;;;;;;8.25;6.07;;;9.40;89.00;;;;;;5028824;28;20422;-75
2021/11/19 11:52:56;;;;;;;7.28;5.90;;;9.40;88.90;;;;;;5022261;28;20818;-70
2021/11/19 11:55:41;;;;;;;7.85;6.43;;;9.30;88.90;;;;;;5028636;28;20399;-70
2021/11/19 11:58:11;;;;;;;9.35;7.07;;;9.20;88.90;;;;;;5032830;28;20457;-75
2021/11/19 12:01:02;;;;;;;9.17;6.43;;;9.00;89.90;;;;;;5036116;28;20428;-75
2021/11/19 12:03:58;;;;;;;8.38;6.38;;;9.10;90.10;;;;;;5034277;28;20410;-74
2021/11/19 12:06:30;;;;;;;8.30;6.60;;;9.20;89.90;;;;;;5032512;28;20450;-74
2021/11/19 12:09:16;;;;;;;7.13;5.68;;;9.30;89.40;;;;;;5031464;28;20747;-70
2021/11/19 12:12:17;;;;;;;7.45;6.60;;;9.40;89.40;;;;;;5033204;28;20810;-75
2021/11/19 12:15:06;;;;;;;10.50;8.82;;;9.40;88.60;;;;;;5028891;28;20906;-70
2021/11/19 12:17:37;;;;;;;10.00;8.18;;;9.50;88.00;;;;;;5032506;28;20398;-70
2021/11/19 12:20:17;;;;;;;9.93;8.30;;;9.50;88.10;;;;;;5029698;28;20413;-69
2021/11/19 12:23:10;;;;;;;8.00;6.43;;;9.50;88.80;;;;;;5030508;28;20432;-75
2021/11/19 12:25:57;;;;;;;9.02;6.93;;;9.60;88.50;;;;;;5032373;28;20460;-75
2021/11/19 12:28:35;;;;;;;7.78;6.63;;;9.70;88.50;;;;;;5035582;28;20407;-75
2021/11/19 12:31:34;;;;;;;7.82;6.22;;;9.70;88.20;;;;;;5032179;28;20434;-69
2021/11/19 12:34:13;;;;;;;7.50;6.20;;;9.70;87.90;;;;;;5031819;28;20402;-75
2021/11/19 12:36:56;;;;;;;8.77;6.70;;;9.70;87.90;;;;;;5032746;28;20443;-70
2021/11/19 12:39:25;;;;;;;9.15;6.82;;;9.70;87.60;;;;;;5015927;28;20403;-70
2021/11/19 12:42:22;;;;;;;9.60;7.57;;;9.70;87.70;;;;;;5036365;28;20418;-70
2021/11/19 12:44:56;;;;;;;9.43;7.83;;;9.80;87.60;;;;;;5030299;28;20395;-70
2021/11/19 12:48:10;;;;;;;8.80;7.63;;;9.70;87.40;;;;;;5031357;28;20465;-71
2021/11/19 12:50:48;;;;;;;10.23;7.95;;;9.70;87.50;;;;;;5033153;28;20807;-75
2021/11/19 12:53:30;;;;;;;8.98;7.57;;;9.70;87.40;;;;;;5029817;28;20402;-75
2021/11/19 12:56:23;;;;;;;9.80;8.55;;;9.80;87.00;;;;;;5032934;28;20403;-71
2021/11/19 12:58:57;;;;;;;9.20;8.25;;;9.80;86.80;;;;;;5031043;28;20405;-76
2021/11/19 13:01:30;;;;;;;11.70;9.07;;;9.70;87.10;;;;;;5031827;28;20404;-69
2021/11/19 13:04:23;;;;;;;12.50;9.25;;;9.50;87.90;;;;;;5029822;28;20772;-70
2021/11/19 13:06:59;;;;;;;10.45;8.57;;;9.50;87.90;;;;;;5030375;28;20414;-69
2021/11/19 13:09:44;;;;;;;9.63;8.15;;;9.50;88.40;;;;;;5031311;28;20479;-75
2021/11/19 13:12:51;;;;;;;9.88;8.38;;;9.50;88.70;;;;;;5032402;28;20410;-75
2021/11/19 13:15:23;;;;;;;11.85;9.40;;;9.30;88.10;;;;;;5031636;28;20405;-69
2021/11/19 13:18:17;;;;;;;12.80;9.70;;;9.20;89.00;;;;;;5029388;28;20872;-75
2021/11/19 13:20:44;;;;;;;10.48;8.63;;;9.10;89.80;;;;;;5030698;28;20410;-69
2021/11/19 13:23:32;;;;;;;11.90;9.45;;;9.10;89.80;;;;;;5031658;28;20400;-70
2021/11/19 13:26:21;;;;;;;10.93;8.88;;;9.20;89.80;;;;;;5031395;28;20464;-74
2021/11/19 13:28:57;;;;;;;12.50;9.27;;;9.20;90.00;;;;;;5024057;28;20398;-69
2021/11/19 13:31:31;;;;;;;12.48;9.52;;;9.30;89.80;;;;;;5031977;28;20425;-74
2021/11/19 13:34:01;;;;;;;11.25;8.68;;;9.20;89.90;;;;;;5031330;28;20940;-76
2021/11/19 13:36:48;;;;;;;11.57;9.70;;;9.20;89.80;;;;;;5032333;28;20410;-71
2021/11/19 13:39:34;;;;;;;13.65;11.27;;;9.10;90.10;;;;;;5030599;28;20486;-75
2021/11/19 13:42:08;;;;;;;12.80;9.88;;;9.10;90.10;;;;;;5031384;28;20409;-74
2021/11/19 13:45:01;;;;;;;12.45;10.32;;;9.10;90.20;;;;;;5035831;28;20402;-74
2021/11/19 13:47:52;;;;;;;12.98;11.07;;;9.20;89.90;;;;;;5051088;28;20398;-74
2021/11/19 13:50:25;;;;;;;12.18;10.15;;;9.20;89.80;;;;;;5028783;28;20420;-74
2021/11/19 13:53:15;;;;;;;13.03;10.40;;;9.20;90.00;;;;;;5036552;28;20410;-74
2021/11/19 13:55:45;;;;;;;12.30;10.07;;;9.30;89.90;;;;;;5026404;28;20452;-69
2021/11/19 13:58:36;;;;;;;13.95;11.80;;;9.30;89.70;;;;;;5032728;28;20398;-74
2021/11/19 14:01:38;;;;;;;12.93;11.13;;;9.30;89.70;;;;;;5029702;28;20416;-74
2021/11/19 14:04:22;;;;;;;12.75;10.65;;;9.10;90.20;;;;;;5030085;28;20426;-74
2021/11/19 14:07:00;;;;;;;13.93;11.35;;;9.10;89.80;;;;;;5037735;28;20466;-74
2021/11/19 14:10:05;;;;;;;13.10;11.55;;;9.20;89.90;;;;;;5021731;28;20903;-74
2021/11/19 14:12:59;;;;;;;13.15;10.95;;;9.20;89.90;;;;;;5031538;28;20492;-69
2021/11/19 14:15:38;;;;;;;13.82;12.02;;;9.10;89.80;;;;;;5040690;28;20770;-69
2021/11/19 14:18:05;;;;;;;13.55;12.15;;;9.00;90.20;;;;;;5029883;28;20396;-69
2021/11/19 14:23:44;;;;;;;14.13;12.13;;;9.00;90.70;;;;;;5030538;28;20485;-75
2021/11/19 14:26:20;;;;;;;15.57;12.55;;;8.90;90.50;;;;;;5035774;28;20452;-69
2021/11/19 14:29:03;;;;;;;14.77;12.02;;;8.90;90.50;;;;;;5032128;28;20395;-70
2021/11/19 14:31:30;;;;;;;13.05;11.70;;;8.90;90.60;;;;;;5033870;28;20915;-74
2021/11/19 14:34:09;;;;;;;15.88;12.48;;;8.90;90.50;;;;;;5033841;28;20456;-74